Satumimaru — JD3925 — position and weather

sailwx.info

Track history (hours):
 
Tides and Currents Weather Stations Pressure Air Temp Water Temp Dewpoint Dewpoint Depression Visibility Wind Speed Wind Dir Waves Ship Positions

Satumimaru

Last reported at 2017-Nov-14 17:59 UTC. Time now 2017-Nov-18 06:28 UTC.
Position N 34°56' E 139°25'.

Length 82 m; draft 5.2 m.

Type: Cargo ship. MMSI: 431007046.

Date/timePositionNaut miles runAvg speedWind from/ knotsBaromVisibWave heightAir tempDewpointWater temp
2017-Nov-14 17:59N 34°56' E 139°25'611.9
2017-Nov-14 17:29N 35°00' E 139°30'611.6
2017-Nov-14 17:00N 35°04' E 139°35'612.1
2017-Nov-14 16:30N 35°07' E 139°41'612.0
2017-Nov-14 16:00N 35°12' E 139°46'511.0
2017-Nov-14 15:30N 35°17' E 139°45'611.6
2017-Nov-14 15:01N 35°23' E 139°42'611.6
2017-Nov-14 14:31N 35°29' E 139°42'1 3.0
2017-Nov-14 14:00N 35°30' E 139°43'0 0.0
2017-Nov-14 13:29N 35°30' E 139°43'0 0.0
2017-Nov-14 12:59N 35°30' E 139°43'0 0.0
2017-Nov-14 12:29N 35°30' E 139°43'0 0.0
2017-Nov-14 11:59N 35°30' E 139°43'0 0.0
2017-Nov-14 11:29N 35°30' E 139°43'0 0.0
2017-Nov-14 10:59N 35°30' E 139°43'0 0.0
2017-Nov-14 10:29N 35°30' E 139°43'0 0.0
2017-Nov-14 09:59N 35°30' E 139°43'0 0.0
2017-Nov-14 09:26N 35°30' E 139°43'0 0.0
2017-Nov-14 09:01N 35°30' E 139°43'4 7.9
2017-Nov-14 08:30N 35°30' E 139°48'6 9.4
2017-Nov-14 07:52N 35°36' E 139°47'2 0.5
2017-Nov-14 04:02N 35°38' E 139°46'0 3.9
2017-Nov-14 03:59N 35°38' E 139°46'1 1.9
2017-Nov-14 03:31N 35°37' E 139°46'4 8.6
2017-Nov-14 03:00N 35°34' E 139°50'1 2.4
2017-Nov-14 02:29N 35°34' E 139°51'0 0.0
2017-Nov-14 01:59N 35°34' E 139°51'0 0.0
2017-Nov-13 22:14N 35°34' E 139°51'0 0.0
2017-Nov-13 21:56N 35°34' E 139°51'  
2017-Nov-11 08:52N 34°07' E 134°56'613.1
2017-Nov-11 08:24N 34°12' E 134°60'713.2
2017-Nov-11 07:53N 34°18' E 135°04'613.3
2017-Nov-11 07:23N 34°24' E 135°08'512.8
2017-Nov-11 07:00N 34°28' E 135°12'712.9
2017-Nov-11 06:27N 34°33' E 135°17'613.1
2017-Nov-11 06:00N 34°38' E 135°22'4 8.0
2017-Nov-11 05:30N 34°38' E 135°27'0 0.1
2017-Nov-11 04:55N 34°38' E 135°27'0 0.0
2017-Nov-11 04:25N 34°38' E 135°27'0 0.0
2017-Nov-11 02:55N 34°38' E 135°27'0 0.0
2017-Nov-11 02:25N 34°38' E 135°27'0 0.0
2017-Nov-11 01:31N 34°38' E 135°27'0 0.0
2017-Nov-11 01:19N 34°38' E 135°27'0 0.0
2017-Nov-11 00:55N 34°38' E 135°27'0 0.0
2017-Nov-11 00:25N 34°38' E 135°27'0 0.0
2017-Nov-10 23:55N 34°38' E 135°27'0 0.2
2017-Nov-10 23:30N 34°38' E 135°27'3 6.8
2017-Nov-10 23:00N 34°38' E 135°23'4 8.3
2017-Nov-10 22:30N 34°35' E 135°19'0 0.0
2017-Nov-10 22:00N 34°35' E 135°19'0 0.0
2017-Nov-10 21:30N 34°35' E 135°19'0 0.0
2017-Nov-10 20:54N 34°35' E 135°19'0 0.0
2017-Nov-10 20:18N 34°35' E 135°19'0 0.0
2017-Nov-10 20:00N 34°35' E 135°19'0 0.0
2017-Nov-10 19:30N 34°35' E 135°19'0 0.0
2017-Nov-10 19:00N 34°35' E 135°19'0 0.0
2017-Nov-10 18:30N 34°35' E 135°19'0 0.1
2017-Nov-10 18:00N 34°35' E 135°19'0 0.0
2017-Nov-10 17:18N 34°35' E 135°19'0 0.0
2017-Nov-10 16:54N 34°35' E 135°19'0 0.0
2017-Nov-10 16:30N 34°35' E 135°19'0 0.0
2017-Nov-10 15:42N 34°35' E 135°19'0 0.1
2017-Nov-10 15:18N 34°35' E 135°19'0 0.1
2017-Nov-10 15:00N 34°35' E 135°19'0 0.0
2017-Nov-10 14:06N 34°35' E 135°19'0 0.2
2017-Nov-10 13:48N 34°35' E 135°19'0 0.0
2017-Nov-10 13:12N 34°35' E 135°19'0 0.0
2017-Nov-10 12:54N 34°35' E 135°19'0 0.0
2017-Nov-10 12:24N 34°35' E 135°19'0 0.0
2017-Nov-10 10:54N 34°35' E 135°19'0 0.1
2017-Nov-10 10:18N 34°35' E 135°19'0 0.0
2017-Nov-10 08:54N 34°35' E 135°19'0 0.0
2017-Nov-10 08:24N 34°35' E 135°19'0 0.0
2017-Nov-10 07:24N 34°35' E 135°19'0 0.0
2017-Nov-10 06:12N 34°35' E 135°19'0 0.0
2017-Nov-10 03:18N 34°35' E 135°19'0 0.0
2017-Nov-10 02:12N 34°35' E 135°19'0 0.0
2017-Nov-10 02:00N 34°35' E 135°19'0 0.0
2017-Nov-10 01:18N 34°35' E 135°19'0 0.0
2017-Nov-10 01:00N 34°35' E 135°19'0 0.0
2017-Nov-10 00:30N 34°35' E 135°19'0 0.0
2017-Nov-10 00:00N 34°35' E 135°19'0 0.5
2017-Nov-09 23:30N 34°35' E 135°18'510.7
2017-Nov-09 23:00N 34°31' E 135°15'510.8
2017-Nov-09 22:30N 34°26' E 135°11'610.6
2017-Nov-09 21:57N 34°22' E 135°07'710.2
2017-Nov-09 21:18N 34°16' E 135°03'311.0
2017-Nov-09 21:01N 34°14' E 135°06'1 1.3
2017-Nov-09 20:31N 34°15' E 135°07'0 0.0
2017-Nov-09 20:00N 34°15' E 135°07'0 0.0
2017-Nov-09 19:30N 34°15' E 135°07'0 0.0
2017-Nov-09 19:00N 34°15' E 135°07'0 0.0
2017-Nov-09 18:30N 34°15' E 135°07'0 0.0
2017-Nov-09 18:00N 34°15' E 135°07'0 0.0
2017-Nov-09 17:27N 34°15' E 135°07'0 0.0
2017-Nov-09 16:57N 34°15' E 135°07'0 0.0
2017-Nov-09 16:27N 34°15' E 135°07'0 0.0
2017-Nov-09 16:00N 34°15' E 135°07'0 0.1
2017-Nov-09 15:30N 34°15' E 135°07'0 0.0
2017-Nov-09 15:00N 34°15' E 135°07'0 0.1
2017-Nov-09 14:30N 34°15' E 135°07'0 0.1
2017-Nov-09 13:57N 34°15' E 135°07'0 0.1
2017-Nov-09 13:30N 34°15' E 135°07'0 0.2
2017-Nov-09 13:00N 34°15' E 135°07'0 0.0
2017-Nov-09 12:30N 34°15' E 135°07'0 0.0
2017-Nov-09 11:57N 34°15' E 135°07'0 0.0
2017-Nov-09 11:30N 34°15' E 135°07'1 2.3
2017-Nov-09 10:56N 34°15' E 135°06'0 0.0
2017-Nov-09 10:20N 34°15' E 135°06'0 0.0
2017-Nov-09 09:59N 34°15' E 135°06'0 0.0
2017-Nov-09 09:29N 34°15' E 135°06'0 0.0
2017-Nov-09 08:59N 34°15' E 135°06'0 0.0
2017-Nov-09 08:29N 34°15' E 135°06'0 0.0
2017-Nov-09 07:59N 34°15' E 135°06'0 0.0
2017-Nov-09 07:29N 34°15' E 135°06'0 0.0
2017-Nov-09 06:59N 34°15' E 135°06'0 0.1
2017-Nov-09 06:29N 34°15' E 135°06'0 0.0
2017-Nov-09 05:56N 34°15' E 135°06'0 0.0
2017-Nov-09 05:29N 34°15' E 135°06'0 0.1
2017-Nov-09 04:47N 34°15' E 135°06'0 0.2
2017-Nov-09 04:29N 34°15' E 135°06'0 0.3
2017-Nov-09 04:00N 34°15' E 135°05'1311.1
2017-Nov-09 02:50N 34°28' E 135°03'411.5
2017-Nov-09 02:29N 34°32' E 135°03'5 9.7
2017-Nov-09 02:00N 34°36' E 135°02'6 8.2
2017-Nov-09 01:20N 34°36' E 134°56'  
Track history (hours):
 
Tides and Currents Weather Stations Pressure Air Temp Water Temp Dewpoint Dewpoint Depression Visibility Wind Speed Wind Dir Waves Ship Positions

Satumimaru

Last reported at 2017-Nov-14 17:59 UTC. Time now 2017-Nov-18 06:28 UTC.
Position N 34°56' E 139°25'.

Length 82 m; draft 5.2 m.

Type: Cargo ship. MMSI: 431007046.

Date/timePositionNaut miles runAvg speedWind from/ knotsBaromVisibWave heightAir tempDewpointWater temp
2017-Nov-14 17:59N 34°56' E 139°25'611.9
2017-Nov-14 17:29N 35°00' E 139°30'611.6
2017-Nov-14 17:00N 35°04' E 139°35'612.1
2017-Nov-14 16:30N 35°07' E 139°41'612.0
2017-Nov-14 16:00N 35°12' E 139°46'511.0
2017-Nov-14 15:30N 35°17' E 139°45'611.6
2017-Nov-14 15:01N 35°23' E 139°42'611.6
2017-Nov-14 14:31N 35°29' E 139°42'1 3.0
2017-Nov-14 14:00N 35°30' E 139°43'0 0.0
2017-Nov-14 13:29N 35°30' E 139°43'0 0.0
2017-Nov-14 12:59N 35°30' E 139°43'0 0.0
2017-Nov-14 12:29N 35°30' E 139°43'0 0.0
2017-Nov-14 11:59N 35°30' E 139°43'0 0.0
2017-Nov-14 11:29N 35°30' E 139°43'0 0.0
2017-Nov-14 10:59N 35°30' E 139°43'0 0.0
2017-Nov-14 10:29N 35°30' E 139°43'0 0.0
2017-Nov-14 09:59N 35°30' E 139°43'0 0.0
2017-Nov-14 09:26N 35°30' E 139°43'0 0.0
2017-Nov-14 09:01N 35°30' E 139°43'4 7.9
2017-Nov-14 08:30N 35°30' E 139°48'6 9.4
2017-Nov-14 07:52N 35°36' E 139°47'2 0.5
2017-Nov-14 04:02N 35°38' E 139°46'0 3.9
2017-Nov-14 03:59N 35°38' E 139°46'1 1.9
2017-Nov-14 03:31N 35°37' E 139°46'4 8.6
2017-Nov-14 03:00N 35°34' E 139°50'1 2.4
2017-Nov-14 02:29N 35°34' E 139°51'0 0.0
2017-Nov-14 01:59N 35°34' E 139°51'0 0.0
2017-Nov-13 22:14N 35°34' E 139°51'0 0.0
2017-Nov-13 21:56N 35°34' E 139°51'  
2017-Nov-11 08:52N 34°07' E 134°56'613.1
2017-Nov-11 08:24N 34°12' E 134°60'713.2
2017-Nov-11 07:53N 34°18' E 135°04'613.3
2017-Nov-11 07:23N 34°24' E 135°08'512.8
2017-Nov-11 07:00N 34°28' E 135°12'712.9
2017-Nov-11 06:27N 34°33' E 135°17'613.1
2017-Nov-11 06:00N 34°38' E 135°22'4 8.0
2017-Nov-11 05:30N 34°38' E 135°27'0 0.1
2017-Nov-11 04:55N 34°38' E 135°27'0 0.0
2017-Nov-11 04:25N 34°38' E 135°27'0 0.0
2017-Nov-11 02:55N 34°38' E 135°27'0 0.0
2017-Nov-11 02:25N 34°38' E 135°27'0 0.0
2017-Nov-11 01:31N 34°38' E 135°27'0 0.0
2017-Nov-11 01:19N 34°38' E 135°27'0 0.0
2017-Nov-11 00:55N 34°38' E 135°27'0 0.0
2017-Nov-11 00:25N 34°38' E 135°27'0 0.0
2017-Nov-10 23:55N 34°38' E 135°27'0 0.2
2017-Nov-10 23:30N 34°38' E 135°27'3 6.8
2017-Nov-10 23:00N 34°38' E 135°23'4 8.3
2017-Nov-10 22:30N 34°35' E 135°19'0 0.0
2017-Nov-10 22:00N 34°35' E 135°19'0 0.0
2017-Nov-10 21:30N 34°35' E 135°19'0 0.0
2017-Nov-10 20:54N 34°35' E 135°19'0 0.0
2017-Nov-10 20:18N 34°35' E 135°19'0 0.0
2017-Nov-10 20:00N 34°35' E 135°19'0 0.0
2017-Nov-10 19:30N 34°35' E 135°19'0 0.0
2017-Nov-10 19:00N 34°35' E 135°19'0 0.0
2017-Nov-10 18:30N 34°35' E 135°19'0 0.1
2017-Nov-10 18:00N 34°35' E 135°19'0 0.0
2017-Nov-10 17:18N 34°35' E 135°19'0 0.0
2017-Nov-10 16:54N 34°35' E 135°19'0 0.0
2017-Nov-10 16:30N 34°35' E 135°19'0 0.0
2017-Nov-10 15:42N 34°35' E 135°19'0 0.1
2017-Nov-10 15:18N 34°35' E 135°19'0 0.1
2017-Nov-10 15:00N 34°35' E 135°19'0 0.0
2017-Nov-10 14:06N 34°35' E 135°19'0 0.2
2017-Nov-10 13:48N 34°35' E 135°19'0 0.0
2017-Nov-10 13:12N 34°35' E 135°19'0 0.0
2017-Nov-10 12:54N 34°35' E 135°19'0 0.0
2017-Nov-10 12:24N 34°35' E 135°19'0 0.0
2017-Nov-10 10:54N 34°35' E 135°19'0 0.1
2017-Nov-10 10:18N 34°35' E 135°19'0 0.0
2017-Nov-10 08:54N 34°35' E 135°19'0 0.0
2017-Nov-10 08:24N 34°35' E 135°19'0 0.0
2017-Nov-10 07:24N 34°35' E 135°19'0 0.0
2017-Nov-10 06:12N 34°35' E 135°19'0 0.0
2017-Nov-10 03:18N 34°35' E 135°19'0 0.0
2017-Nov-10 02:12N 34°35' E 135°19'0 0.0
2017-Nov-10 02:00N 34°35' E 135°19'0 0.0
2017-Nov-10 01:18N 34°35' E 135°19'0 0.0
2017-Nov-10 01:00N 34°35' E 135°19'0 0.0
2017-Nov-10 00:30N 34°35' E 135°19'0 0.0
2017-Nov-10 00:00N 34°35' E 135°19'0 0.5
2017-Nov-09 23:30N 34°35' E 135°18'510.7
2017-Nov-09 23:00N 34°31' E 135°15'510.8
2017-Nov-09 22:30N 34°26' E 135°11'610.6
2017-Nov-09 21:57N 34°22' E 135°07'710.2
2017-Nov-09 21:18N 34°16' E 135°03'311.0
2017-Nov-09 21:01N 34°14' E 135°06'1 1.3
2017-Nov-09 20:31N 34°15' E 135°07'0 0.0
2017-Nov-09 20:00N 34°15' E 135°07'0 0.0
2017-Nov-09 19:30N 34°15' E 135°07'0 0.0
2017-Nov-09 19:00N 34°15' E 135°07'0 0.0
2017-Nov-09 18:30N 34°15' E 135°07'0 0.0
2017-Nov-09 18:00N 34°15' E 135°07'0 0.0
2017-Nov-09 17:27N 34°15' E 135°07'0 0.0
2017-Nov-09 16:57N 34°15' E 135°07'0 0.0
2017-Nov-09 16:27N 34°15' E 135°07'0 0.0
2017-Nov-09 16:00N 34°15' E 135°07'0 0.1
2017-Nov-09 15:30N 34°15' E 135°07'0 0.0
2017-Nov-09 15:00N 34°15' E 135°07'0 0.1
2017-Nov-09 14:30N 34°15' E 135°07'0 0.1
2017-Nov-09 13:57N 34°15' E 135°07'0 0.1
2017-Nov-09 13:30N 34°15' E 135°07'0 0.2
2017-Nov-09 13:00N 34°15' E 135°07'0 0.0
2017-Nov-09 12:30N 34°15' E 135°07'0 0.0
2017-Nov-09 11:57N 34°15' E 135°07'0 0.0
2017-Nov-09 11:30N 34°15' E 135°07'1 2.3
2017-Nov-09 10:56N 34°15' E 135°06'0 0.0
2017-Nov-09 10:20N 34°15' E 135°06'0 0.0
2017-Nov-09 09:59N 34°15' E 135°06'0 0.0
2017-Nov-09 09:29N 34°15' E 135°06'0 0.0
2017-Nov-09 08:59N 34°15' E 135°06'0 0.0
2017-Nov-09 08:29N 34°15' E 135°06'0 0.0
2017-Nov-09 07:59N 34°15' E 135°06'0 0.0
2017-Nov-09 07:29N 34°15' E 135°06'0 0.0
2017-Nov-09 06:59N 34°15' E 135°06'0 0.1
2017-Nov-09 06:29N 34°15' E 135°06'0 0.0
2017-Nov-09 05:56N 34°15' E 135°06'0 0.0
2017-Nov-09 05:29N 34°15' E 135°06'0 0.1
2017-Nov-09 04:47N 34°15' E 135°06'0 0.2
2017-Nov-09 04:29N 34°15' E 135°06'0 0.3
2017-Nov-09 04:00N 34°15' E 135°05'1311.1
2017-Nov-09 02:50N 34°28' E 135°03'411.5
2017-Nov-09 02:29N 34°32' E 135°03'5 9.7
2017-Nov-09 02:00N 34°36' E 135°02'6 8.2
2017-Nov-09 01:20N 34°36' E 134°56'  

Dump ship's entire track history